sensor_id;sensor_type;location;lat;lon;timestamp;P1;durP1;ratioP1;P2;durP2;ratioP2
50429;SDS011;36359;41.556;-8.418;2022-08-21T00:02:22;7.25;;;2.50;;
50429;SDS011;36359;41.556;-8.418;2022-08-21T00:04:49;7.22;;;2.15;;
50429;SDS011;36359;41.556;-8.418;2022-08-21T00:07:16;6.55;;;2.00;;
50429;SDS011;36359;41.556;-8.418;2022-08-21T00:09:43;4.35;;;1.98;;
50429;SDS011;36359;41.556;-8.418;2022-08-21T00:12:09;4.57;;;2.13;;
50429;SDS011;36359;41.556;-8.418;2022-08-21T00:14:35;5.30;;;2.17;;
50429;SDS011;36359;41.556;-8.418;2022-08-21T00:17:02;4.95;;;1.80;;
50429;SDS011;36359;41.556;-8.418;2022-08-21T00:19:28;6.55;;;2.30;;
50429;SDS011;36359;41.556;-8.418;2022-08-21T00:21:54;5.25;;;2.15;;
50429;SDS011;36359;41.556;-8.418;2022-08-21T00:24:20;4.45;;;2.13;;
50429;SDS011;36359;41.556;-8.418;2022-08-21T00:26:47;4.45;;;2.10;;
50429;SDS011;36359;41.556;-8.418;2022-08-21T00:29:13;8.70;;;2.60;;
50429;SDS011;36359;41.556;-8.418;2022-08-21T00:31:40;3.65;;;2.13;;
50429;SDS011;36359;41.556;-8.418;2022-08-21T00:34:07;4.18;;;2.00;;
50429;SDS011;36359;41.556;-8.418;2022-08-21T00:36:33;6.38;;;2.33;;
50429;SDS011;36359;41.556;-8.418;2022-08-21T00:39:00;5.13;;;1.98;;
50429;SDS011;36359;41.556;-8.418;2022-08-21T00:41:26;3.70;;;2.00;;
50429;SDS011;36359;41.556;-8.418;2022-08-21T00:43:54;6.25;;;3.20;;
50429;SDS011;36359;41.556;-8.418;2022-08-21T00:46:20;4.68;;;2.17;;
50429;SDS011;36359;41.556;-8.418;2022-08-21T00:48:45;10.57;;;3.50;;
50429;SDS011;36359;41.556;-8.418;2022-08-21T00:51:19;6.07;;;2.95;;
50429;SDS011;36359;41.556;-8.418;2022-08-21T00:53:52;11.88;;;4.30;;
50429;SDS011;36359;41.556;-8.418;2022-08-21T00:56:21;14.65;;;4.45;;
50429;SDS011;36359;41.556;-8.418;2022-08-21T00:58:49;11.15;;;4.72;;
50429;SDS011;36359;41.556;-8.418;2022-08-21T01:01:17;12.15;;;4.07;;
50429;SDS011;36359;41.556;-8.418;2022-08-21T01:03:43;12.50;;;4.88;;
50429;SDS011;36359;41.556;-8.418;2022-08-21T01:06:10;13.88;;;5.18;;
50429;SDS011;36359;41.556;-8.418;2022-08-21T01:08:36;13.52;;;5.40;;
50429;SDS011;36359;41.556;-8.418;2022-08-21T01:11:02;13.38;;;4.97;;
50429;SDS011;36359;41.556;-8.418;2022-08-21T01:13:29;8.23;;;2.85;;
50429;SDS011;36359;41.556;-8.418;2022-08-21T01:15:59;6.65;;;2.97;;
50429;SDS011;36359;41.556;-8.418;2022-08-21T01:18:27;8.90;;;3.72;;
50429;SDS011;36359;41.556;-8.418;2022-08-21T01:23:28;10.82;;;3.88;;
50429;SDS011;36359;41.556;-8.418;2022-08-21T01:25:54;6.57;;;3.08;;
50429;SDS011;36359;41.556;-8.418;2022-08-21T01:28:20;6.20;;;2.60;;
50429;SDS011;36359;41.556;-8.418;2022-08-21T01:30:47;9.65;;;3.33;;
50429;SDS011;36359;41.556;-8.418;2022-08-21T01:33:16;7.07;;;2.85;;
50429;SDS011;36359;41.556;-8.418;2022-08-21T01:35:43;10.27;;;4.10;;
50429;SDS011;36359;41.556;-8.418;2022-08-21T01:38:09;13.85;;;4.30;;
50429;SDS011;36359;41.556;-8.418;2022-08-21T01:40:35;10.52;;;4.05;;
50429;SDS011;36359;41.556;-8.418;2022-08-21T01:43:01;6.88;;;3.13;;
50429;SDS011;36359;41.556;-8.418;2022-08-21T01:45:27;5.28;;;2.50;;
50429;SDS011;36359;41.556;-8.418;2022-08-21T01:47:53;5.95;;;2.78;;
50429;SDS011;36359;41.556;-8.418;2022-08-21T01:50:19;6.43;;;3.08;;
50429;SDS011;36359;41.556;-8.418;2022-08-21T01:52:46;7.80;;;2.85;;
50429;SDS011;36359;41.556;-8.418;2022-08-21T01:55:13;7.68;;;3.00;;
50429;SDS011;36359;41.556;-8.418;2022-08-21T01:57:39;8.80;;;3.67;;
50429;SDS011;36359;41.556;-8.418;2022-08-21T02:00:07;10.75;;;3.40;;
50429;SDS011;36359;41.556;-8.418;2022-08-21T02:02:39;10.02;;;4.18;;
50429;SDS011;36359;41.556;-8.418;2022-08-21T02:05:06;10.07;;;3.92;;
50429;SDS011;36359;41.556;-8.418;2022-08-21T02:07:41;8.82;;;3.75;;
50429;SDS011;36359;41.556;-8.418;2022-08-21T02:10:11;10.43;;;4.38;;
50429;SDS011;36359;41.556;-8.418;2022-08-21T02:12:38;10.52;;;3.47;;
50429;SDS011;36359;41.556;-8.418;2022-08-21T02:15:05;5.32;;;2.58;;
50429;SDS011;36359;41.556;-8.418;2022-08-21T02:17:41;9.13;;;3.42;;
50429;SDS011;36359;41.556;-8.418;2022-08-21T02:20:28;7.13;;;3.33;;
50429;SDS011;36359;41.556;-8.418;2022-08-21T02:23:14;7.53;;;3.17;;
50429;SDS011;36359;41.556;-8.418;2022-08-21T02:25:41;9.45;;;3.65;;
50429;SDS011;36359;41.556;-8.418;2022-08-21T02:28:10;8.88;;;3.33;;
50429;SDS011;36359;41.556;-8.418;2022-08-21T02:30:42;8.65;;;3.33;;
50429;SDS011;36359;41.556;-8.418;2022-08-21T02:33:10;8.73;;;3.45;;
50429;SDS011;36359;41.556;-8.418;2022-08-21T02:35:38;6.45;;;2.75;;
50429;SDS011;36359;41.556;-8.418;2022-08-21T02:38:08;9.77;;;3.88;;
50429;SDS011;36359;41.556;-8.418;2022-08-21T02:40:37;9.75;;;3.55;;
50429;SDS011;36359;41.556;-8.418;2022-08-21T02:43:04;10.25;;;4.10;;
50429;SDS011;36359;41.556;-8.418;2022-08-21T02:45:31;11.38;;;4.45;;
50429;SDS011;36359;41.556;-8.418;2022-08-21T02:47:59;12.18;;;4.95;;
50429;SDS011;36359;41.556;-8.418;2022-08-21T02:50:34;6.40;;;2.90;;
50429;SDS011;36359;41.556;-8.418;2022-08-21T02:53:08;10.07;;;3.88;;
50429;SDS011;36359;41.556;-8.418;2022-08-21T02:55:42;11.07;;;4.32;;
50429;SDS011;36359;41.556;-8.418;2022-08-21T02:58:10;12.23;;;4.20;;
50429;SDS011;36359;41.556;-8.418;2022-08-21T03:00:36;7.78;;;3.28;;
50429;SDS011;36359;41.556;-8.418;2022-08-21T03:03:03;12.95;;;4.53;;
50429;SDS011;36359;41.556;-8.418;2022-08-21T03:05:30;10.43;;;3.92;;
50429;SDS011;36359;41.556;-8.418;2022-08-21T03:07:58;10.32;;;4.53;;
50429;SDS011;36359;41.556;-8.418;2022-08-21T03:10:26;8.73;;;3.97;;
50429;SDS011;36359;41.556;-8.418;2022-08-21T03:12:52;11.05;;;4.55;;
50429;SDS011;36359;41.556;-8.418;2022-08-21T03:15:20;6.65;;;3.30;;
50429;SDS011;36359;41.556;-8.418;2022-08-21T03:17:51;9.82;;;3.60;;
50429;SDS011;36359;41.556;-8.418;2022-08-21T03:20:20;8.63;;;3.50;;
50429;SDS011;36359;41.556;-8.418;2022-08-21T03:22:53;7.28;;;3.20;;
50429;SDS011;36359;41.556;-8.418;2022-08-21T03:25:20;11.25;;;3.70;;
50429;SDS011;36359;41.556;-8.418;2022-08-21T03:27:47;11.60;;;4.22;;
50429;SDS011;36359;41.556;-8.418;2022-08-21T03:30:16;6.07;;;3.10;;
50429;SDS011;36359;41.556;-8.418;2022-08-21T03:32:45;13.52;;;4.65;;
50429;SDS011;36359;41.556;-8.418;2022-08-21T03:35:11;7.85;;;3.00;;
50429;SDS011;36359;41.556;-8.418;2022-08-21T03:37:38;10.32;;;3.95;;
50429;SDS011;36359;41.556;-8.418;2022-08-21T03:40:04;12.68;;;4.95;;
50429;SDS011;36359;41.556;-8.418;2022-08-21T03:42:32;12.55;;;4.53;;
50429;SDS011;36359;41.556;-8.418;2022-08-21T03:44:58;8.27;;;3.58;;
50429;SDS011;36359;41.556;-8.418;2022-08-21T03:47:24;10.88;;;3.92;;
50429;SDS011;36359;41.556;-8.418;2022-08-21T03:49:50;16.75;;;4.32;;
50429;SDS011;36359;41.556;-8.418;2022-08-21T03:52:15;10.73;;;4.20;;
50429;SDS011;36359;41.556;-8.418;2022-08-21T03:54:42;13.35;;;4.63;;
50429;SDS011;36359;41.556;-8.418;2022-08-21T03:57:09;14.27;;;4.18;;
50429;SDS011;36359;41.556;-8.418;2022-08-21T03:59:36;8.68;;;3.40;;
50429;SDS011;36359;41.556;-8.418;2022-08-21T04:02:03;8.30;;;3.25;;
50429;SDS011;36359;41.556;-8.418;2022-08-21T04:04:31;6.93;;;3.53;;
50429;SDS011;36359;41.556;-8.418;2022-08-21T04:06:57;6.38;;;2.60;;
50429;SDS011;36359;41.556;-8.418;2022-08-21T04:09:23;5.85;;;2.80;;
50429;SDS011;36359;41.556;-8.418;2022-08-21T04:11:50;7.13;;;2.95;;
50429;SDS011;36359;41.556;-8.418;2022-08-21T04:14:16;8.10;;;3.53;;
50429;SDS011;36359;41.556;-8.418;2022-08-21T04:16:42;5.78;;;2.90;;
50429;SDS011;36359;41.556;-8.418;2022-08-21T04:19:11;6.85;;;3.08;;
50429;SDS011;36359;41.556;-8.418;2022-08-21T04:21:38;10.13;;;3.77;;
50429;SDS011;36359;41.556;-8.418;2022-08-21T04:24:06;15.02;;;4.63;;
50429;SDS011;36359;41.556;-8.418;2022-08-21T04:26:33;12.32;;;4.45;;
50429;SDS011;36359;41.556;-8.418;2022-08-21T04:29:00;11.55;;;4.03;;
50429;SDS011;36359;41.556;-8.418;2022-08-21T04:31:26;12.48;;;4.35;;
50429;SDS011;36359;41.556;-8.418;2022-08-21T04:33:53;10.38;;;4.20;;
50429;SDS011;36359;41.556;-8.418;2022-08-21T04:36:20;14.85;;;4.70;;
50429;SDS011;36359;41.556;-8.418;2022-08-21T04:38:46;7.43;;;2.80;;
50429;SDS011;36359;41.556;-8.418;2022-08-21T04:41:11;10.43;;;2.75;;
50429;SDS011;36359;41.556;-8.418;2022-08-21T04:43:38;4.90;;;2.80;;
50429;SDS011;36359;41.556;-8.418;2022-08-21T04:46:04;6.95;;;2.75;;
50429;SDS011;36359;41.556;-8.418;2022-08-21T04:48:31;6.95;;;2.97;;
50429;SDS011;36359;41.556;-8.418;2022-08-21T04:55:52;7.47;;;3.13;;
50429;SDS011;36359;41.556;-8.418;2022-08-21T04:58:21;6.47;;;2.97;;
50429;SDS011;36359;41.556;-8.418;2022-08-21T05:00:49;6.40;;;2.95;;
50429;SDS011;36359;41.556;-8.418;2022-08-21T05:03:18;10.20;;;3.58;;
50429;SDS011;36359;41.556;-8.418;2022-08-21T05:05:44;7.13;;;2.88;;
50429;SDS011;36359;41.556;-8.418;2022-08-21T05:08:12;12.68;;;4.28;;
50429;SDS011;36359;41.556;-8.418;2022-08-21T05:13:09;11.80;;;4.00;;
50429;SDS011;36359;41.556;-8.418;2022-08-21T05:15:38;11.65;;;3.70;;
50429;SDS011;36359;41.556;-8.418;2022-08-21T05:18:05;6.25;;;2.95;;
50429;SDS011;36359;41.556;-8.418;2022-08-21T05:20:32;7.00;;;3.17;;
50429;SDS011;36359;41.556;-8.418;2022-08-21T05:22:59;10.77;;;3.58;;
50429;SDS011;36359;41.556;-8.418;2022-08-21T05:25:26;12.10;;;3.97;;
50429;SDS011;36359;41.556;-8.418;2022-08-21T05:27:52;13.30;;;4.45;;
50429;SDS011;36359;41.556;-8.418;2022-08-21T05:30:19;10.80;;;4.00;;
50429;SDS011;36359;41.556;-8.418;2022-08-21T05:32:46;6.60;;;2.65;;
50429;SDS011;36359;41.556;-8.418;2022-08-21T05:35:12;12.82;;;4.45;;
50429;SDS011;36359;41.556;-8.418;2022-08-21T05:37:39;18.05;;;4.35;;
50429;SDS011;36359;41.556;-8.418;2022-08-21T05:40:05;11.13;;;3.92;;
50429;SDS011;36359;41.556;-8.418;2022-08-21T05:42:33;14.50;;;4.20;;
50429;SDS011;36359;41.556;-8.418;2022-08-21T05:44:58;17.33;;;4.50;;
50429;SDS011;36359;41.556;-8.418;2022-08-21T05:47:24;12.35;;;4.15;;
50429;SDS011;36359;41.556;-8.418;2022-08-21T05:49:50;16.40;;;4.97;;
50429;SDS011;36359;41.556;-8.418;2022-08-21T05:52:19;13.25;;;4.55;;
50429;SDS011;36359;41.556;-8.418;2022-08-21T05:54:46;10.95;;;3.97;;
50429;SDS011;36359;41.556;-8.418;2022-08-21T05:57:12;12.23;;;4.50;;
50429;SDS011;36359;41.556;-8.418;2022-08-21T05:59:38;13.45;;;4.60;;
50429;SDS011;36359;41.556;-8.418;2022-08-21T06:02:03;7.90;;;3.22;;
50429;SDS011;36359;41.556;-8.418;2022-08-21T06:04:29;7.78;;;3.13;;
50429;SDS011;36359;41.556;-8.418;2022-08-21T06:06:55;6.82;;;2.78;;
50429;SDS011;36359;41.556;-8.418;2022-08-21T06:09:21;9.30;;;3.45;;
50429;SDS011;36359;41.556;-8.418;2022-08-21T06:11:47;9.00;;;3.55;;
50429;SDS011;36359;41.556;-8.418;2022-08-21T06:14:16;6.05;;;2.90;;
50429;SDS011;36359;41.556;-8.418;2022-08-21T06:16:41;8.43;;;3.42;;
50429;SDS011;36359;41.556;-8.418;2022-08-21T06:19:07;13.07;;;3.92;;
50429;SDS011;36359;41.556;-8.418;2022-08-21T06:21:33;10.13;;;3.80;;
50429;SDS011;36359;41.556;-8.418;2022-08-21T06:23:59;7.60;;;3.30;;
50429;SDS011;36359;41.556;-8.418;2022-08-21T06:26:24;17.80;;;9.40;;
50429;SDS011;36359;41.556;-8.418;2022-08-21T06:28:50;23.08;;;11.70;;
50429;SDS011;36359;41.556;-8.418;2022-08-21T06:31:26;21.92;;;13.13;;
50429;SDS011;36359;41.556;-8.418;2022-08-21T06:33:53;9.13;;;5.15;;
50429;SDS011;36359;41.556;-8.418;2022-08-21T06:36:19;18.35;;;12.13;;
50429;SDS011;36359;41.556;-8.418;2022-08-21T06:38:48;15.80;;;6.05;;
50429;SDS011;36359;41.556;-8.418;2022-08-21T06:41:14;14.40;;;5.18;;
50429;SDS011;36359;41.556;-8.418;2022-08-21T06:43:40;20.23;;;6.22;;
50429;SDS011;36359;41.556;-8.418;2022-08-21T06:46:06;14.25;;;5.55;;
50429;SDS011;36359;41.556;-8.418;2022-08-21T06:48:32;14.73;;;5.45;;
50429;SDS011;36359;41.556;-8.418;2022-08-21T06:51:00;17.55;;;5.60;;
50429;SDS011;36359;41.556;-8.418;2022-08-21T06:53:26;16.73;;;5.22;;
50429;SDS011;36359;41.556;-8.418;2022-08-21T06:55:52;15.88;;;5.97;;
50429;SDS011;36359;41.556;-8.418;2022-08-21T06:58:18;15.60;;;5.72;;
50429;SDS011;36359;41.556;-8.418;2022-08-21T07:00:46;9.00;;;4.20;;
50429;SDS011;36359;41.556;-8.418;2022-08-21T07:06:09;14.63;;;4.80;;
50429;SDS011;36359;41.556;-8.418;2022-08-21T07:08:36;15.65;;;5.35;;
50429;SDS011;36359;41.556;-8.418;2022-08-21T07:11:04;17.38;;;5.32;;
50429;SDS011;36359;41.556;-8.418;2022-08-21T07:13:36;13.40;;;5.25;;
50429;SDS011;36359;41.556;-8.418;2022-08-21T07:16:02;10.27;;;4.05;;
50429;SDS011;36359;41.556;-8.418;2022-08-21T07:18:28;13.90;;;4.72;;
50429;SDS011;36359;41.556;-8.418;2022-08-21T07:20:54;16.00;;;6.18;;
50429;SDS011;36359;41.556;-8.418;2022-08-21T07:25:53;15.90;;;5.85;;
50429;SDS011;36359;41.556;-8.418;2022-08-21T07:28:19;14.73;;;6.28;;
50429;SDS011;36359;41.556;-8.418;2022-08-21T07:30:46;16.33;;;7.28;;
50429;SDS011;36359;41.556;-8.418;2022-08-21T07:33:17;21.45;;;11.10;;
50429;SDS011;36359;41.556;-8.418;2022-08-21T07:35:43;16.02;;;11.30;;
50429;SDS011;36359;41.556;-8.418;2022-08-21T07:38:09;24.08;;;16.15;;
50429;SDS011;36359;41.556;-8.418;2022-08-21T07:40:34;35.92;;;26.40;;
50429;SDS011;36359;41.556;-8.418;2022-08-21T07:43:00;18.83;;;12.07;;
50429;SDS011;36359;41.556;-8.418;2022-08-21T07:45:26;16.20;;;9.90;;
50429;SDS011;36359;41.556;-8.418;2022-08-21T07:47:52;16.58;;;6.75;;
50429;SDS011;36359;41.556;-8.418;2022-08-21T07:50:18;9.27;;;5.53;;
50429;SDS011;36359;41.556;-8.418;2022-08-21T07:52:44;11.05;;;5.65;;
50429;SDS011;36359;41.556;-8.418;2022-08-21T07:55:11;9.95;;;5.53;;
50429;SDS011;36359;41.556;-8.418;2022-08-21T07:57:39;12.88;;;5.03;;
50429;SDS011;36359;41.556;-8.418;2022-08-21T08:00:06;11.07;;;5.18;;
50429;SDS011;36359;41.556;-8.418;2022-08-21T08:02:37;14.43;;;6.03;;
50429;SDS011;36359;41.556;-8.418;2022-08-21T08:05:05;9.32;;;4.65;;
50429;SDS011;36359;41.556;-8.418;2022-08-21T08:07:32;17.35;;;7.05;;
50429;SDS011;36359;41.556;-8.418;2022-08-21T08:09:59;11.05;;;5.53;;
50429;SDS011;36359;41.556;-8.418;2022-08-21T08:12:25;9.07;;;4.68;;
50429;SDS011;36359;41.556;-8.418;2022-08-21T08:14:56;9.70;;;4.43;;
50429;SDS011;36359;41.556;-8.418;2022-08-21T08:17:22;7.38;;;4.53;;
50429;SDS011;36359;41.556;-8.418;2022-08-21T08:19:49;13.60;;;4.85;;
50429;SDS011;36359;41.556;-8.418;2022-08-21T08:22:15;10.68;;;4.57;;
50429;SDS011;36359;41.556;-8.418;2022-08-21T08:24:46;9.63;;;4.63;;
50429;SDS011;36359;41.556;-8.418;2022-08-21T08:27:13;12.05;;;4.72;;
50429;SDS011;36359;41.556;-8.418;2022-08-21T08:29:40;9.75;;;4.60;;
50429;SDS011;36359;41.556;-8.418;2022-08-21T08:32:06;8.32;;;4.30;;
50429;SDS011;36359;41.556;-8.418;2022-08-21T08:34:35;7.85;;;4.07;;
50429;SDS011;36359;41.556;-8.418;2022-08-21T08:37:03;9.25;;;4.55;;
50429;SDS011;36359;41.556;-8.418;2022-08-21T08:39:29;9.55;;;4.20;;
50429;SDS011;36359;41.556;-8.418;2022-08-21T08:41:58;13.95;;;5.00;;
50429;SDS011;36359;41.556;-8.418;2022-08-21T08:44:29;8.15;;;4.10;;
50429;SDS011;36359;41.556;-8.418;2022-08-21T08:46:57;8.18;;;4.20;;
50429;SDS011;36359;41.556;-8.418;2022-08-21T08:55:15;7.85;;;4.18;;
50429;SDS011;36359;41.556;-8.418;2022-08-21T08:57:59;8.75;;;3.70;;
50429;SDS011;36359;41.556;-8.418;2022-08-21T09:00:28;9.90;;;4.28;;
50429;SDS011;36359;41.556;-8.418;2022-08-21T09:02:54;9.65;;;3.95;;
50429;SDS011;36359;41.556;-8.418;2022-08-21T09:05:29;8.77;;;3.80;;
50429;SDS011;36359;41.556;-8.418;2022-08-21T09:08:14;6.13;;;3.42;;
50429;SDS011;36359;41.556;-8.418;2022-08-21T09:11:03;8.73;;;4.53;;
50429;SDS011;36359;41.556;-8.418;2022-08-21T09:22:03;7.80;;;3.90;;
50429;SDS011;36359;41.556;-8.418;2022-08-21T09:27:16;8.13;;;3.90;;
50429;SDS011;36359;41.556;-8.418;2022-08-21T09:29:45;7.25;;;3.30;;
50429;SDS011;36359;41.556;-8.418;2022-08-21T09:35:13;4.40;;;3.03;;
50429;SDS011;36359;41.556;-8.418;2022-08-21T09:40:38;5.80;;;3.53;;
50429;SDS011;36359;41.556;-8.418;2022-08-21T09:43:17;8.25;;;3.88;;
50429;SDS011;36359;41.556;-8.418;2022-08-21T09:45:44;7.15;;;3.33;;
50429;SDS011;36359;41.556;-8.418;2022-08-21T09:48:12;6.68;;;3.40;;
50429;SDS011;36359;41.556;-8.418;2022-08-21T09:50:49;5.28;;;3.22;;
50429;SDS011;36359;41.556;-8.418;2022-08-21T09:53:18;5.15;;;3.03;;
50429;SDS011;36359;41.556;-8.418;2022-08-21T09:55:47;5.90;;;3.00;;
50429;SDS011;36359;41.556;-8.418;2022-08-21T09:58:35;5.07;;;3.22;;
50429;SDS011;36359;41.556;-8.418;2022-08-21T10:01:06;5.68;;;3.40;;
50429;SDS011;36359;41.556;-8.418;2022-08-21T10:03:37;5.07;;;3.00;;
50429;SDS011;36359;41.556;-8.418;2022-08-21T10:06:04;4.35;;;3.20;;
50429;SDS011;36359;41.556;-8.418;2022-08-21T10:08:35;4.97;;;2.85;;
50429;SDS011;36359;41.556;-8.418;2022-08-21T10:11:07;5.72;;;3.53;;
50429;SDS011;36359;41.556;-8.418;2022-08-21T10:13:42;6.03;;;3.05;;
50429;SDS011;36359;41.556;-8.418;2022-08-21T10:16:30;4.95;;;3.05;;
50429;SDS011;36359;41.556;-8.418;2022-08-21T10:29:50;5.72;;;3.13;;
50429;SDS011;36359;41.556;-8.418;2022-08-21T10:35:08;6.35;;;3.30;;
50429;SDS011;36359;41.556;-8.418;2022-08-21T10:40:58;5.10;;;3.13;;
50429;SDS011;36359;41.556;-8.418;2022-08-21T10:43:44;4.95;;;3.25;;
50429;SDS011;36359;41.556;-8.418;2022-08-21T10:46:42;6.30;;;3.45;;
50429;SDS011;36359;41.556;-8.418;2022-08-21T10:49:22;6.82;;;3.58;;
50429;SDS011;36359;41.556;-8.418;2022-08-21T10:52:02;7.07;;;3.20;;
50429;SDS011;36359;41.556;-8.418;2022-08-21T11:00:10;5.13;;;3.00;;
50429;SDS011;36359;41.556;-8.418;2022-08-21T11:02:50;6.25;;;3.05;;
50429;SDS011;36359;41.556;-8.418;2022-08-21T11:05:17;4.90;;;2.78;;
50429;SDS011;36359;41.556;-8.418;2022-08-21T11:13:35;5.15;;;2.85;;
50429;SDS011;36359;41.556;-8.418;2022-08-21T11:18:38;4.70;;;3.00;;
50429;SDS011;36359;41.556;-8.418;2022-08-21T11:21:30;5.18;;;3.35;;
50429;SDS011;36359;41.556;-8.418;2022-08-21T11:24:04;5.72;;;3.20;;
50429;SDS011;36359;41.556;-8.418;2022-08-21T11:29:35;4.30;;;3.40;;
50429;SDS011;36359;41.556;-8.418;2022-08-21T11:35:12;5.05;;;3.17;;
50429;SDS011;36359;41.556;-8.418;2022-08-21T11:43:08;3.58;;;2.80;;
50429;SDS011;36359;41.556;-8.418;2022-08-21T11:45:55;4.28;;;2.63;;
50429;SDS011;36359;41.556;-8.418;2022-08-21T11:52:10;4.03;;;3.08;;
50429;SDS011;36359;41.556;-8.418;2022-08-21T12:00:39;3.65;;;2.60;;
50429;SDS011;36359;41.556;-8.418;2022-08-21T12:06:27;3.20;;;2.47;;
50429;SDS011;36359;41.556;-8.418;2022-08-21T12:08:40;4.32;;;3.00;;
50429;SDS011;36359;41.556;-8.418;2022-08-21T12:11:09;4.22;;;2.90;;
50429;SDS011;36359;41.556;-8.418;2022-08-21T12:14:35;4.15;;;3.03;;
50429;SDS011;36359;41.556;-8.418;2022-08-21T12:16:40;4.65;;;3.05;;
50429;SDS011;36359;41.556;-8.418;2022-08-21T12:19:27;4.65;;;3.60;;
50429;SDS011;36359;41.556;-8.418;2022-08-21T12:29:53;4.57;;;3.13;;
50429;SDS011;36359;41.556;-8.418;2022-08-21T12:32:29;4.22;;;3.13;;
50429;SDS011;36359;41.556;-8.418;2022-08-21T12:35:18;4.80;;;3.10;;
50429;SDS011;36359;41.556;-8.418;2022-08-21T12:37:55;4.50;;;3.17;;
50429;SDS011;36359;41.556;-8.418;2022-08-21T12:40:30;3.47;;;2.80;;
50429;SDS011;36359;41.556;-8.418;2022-08-21T12:43:02;3.83;;;2.60;;
50429;SDS011;36359;41.556;-8.418;2022-08-21T12:45:34;4.70;;;3.03;;
50429;SDS011;36359;41.556;-8.418;2022-08-21T12:50:56;2.97;;;1.80;;
50429;SDS011;36359;41.556;-8.418;2022-08-21T12:53:50;2.92;;;1.90;;
50429;SDS011;36359;41.556;-8.418;2022-08-21T12:56:22;2.67;;;1.90;;
50429;SDS011;36359;41.556;-8.418;2022-08-21T12:58:51;2.87;;;1.87;;
50429;SDS011;36359;41.556;-8.418;2022-08-21T13:01:23;2.97;;;1.60;;
50429;SDS011;36359;41.556;-8.418;2022-08-21T13:03:54;2.53;;;2.03;;
50429;SDS011;36359;41.556;-8.418;2022-08-21T13:06:22;2.10;;;1.60;;
50429;SDS011;36359;41.556;-8.418;2022-08-21T13:08:54;1.90;;;1.70;;
50429;SDS011;36359;41.556;-8.418;2022-08-21T13:11:24;3.05;;;1.10;;
50429;SDS011;36359;41.556;-8.418;2022-08-21T13:13:51;2.00;;;1.30;;
50429;SDS011;36359;41.556;-8.418;2022-08-21T13:16:20;2.63;;;1.42;;
50429;SDS011;36359;41.556;-8.418;2022-08-21T13:18:57;2.17;;;1.50;;
50429;SDS011;36359;41.556;-8.418;2022-08-21T13:21:27;1.48;;;1.15;;
50429;SDS011;36359;41.556;-8.418;2022-08-21T13:23:54;2.65;;;1.50;;
50429;SDS011;36359;41.556;-8.418;2022-08-21T13:26:35;3.40;;;1.60;;
50429;SDS011;36359;41.556;-8.418;2022-08-21T13:29:07;2.97;;;2.05;;
50429;SDS011;36359;41.556;-8.418;2022-08-21T13:31:38;2.33;;;1.77;;
50429;SDS011;36359;41.556;-8.418;2022-08-21T13:34:08;2.13;;;1.52;;
50429;SDS011;36359;41.556;-8.418;2022-08-21T13:36:36;4.18;;;1.98;;
50429;SDS011;36359;41.556;-8.418;2022-08-21T13:39:12;3.08;;;2.20;;
50429;SDS011;36359;41.556;-8.418;2022-08-21T13:41:43;2.25;;;1.65;;
50429;SDS011;36359;41.556;-8.418;2022-08-21T13:44:21;1.95;;;1.58;;
50429;SDS011;36359;41.556;-8.418;2022-08-21T13:46:56;2.97;;;1.88;;
50429;SDS011;36359;41.556;-8.418;2022-08-21T13:49:34;2.40;;;1.77;;
50429;SDS011;36359;41.556;-8.418;2022-08-21T13:52:03;2.65;;;2.00;;
50429;SDS011;36359;41.556;-8.418;2022-08-21T13:54:37;2.90;;;2.13;;
50429;SDS011;36359;41.556;-8.418;2022-08-21T13:57:15;2.10;;;1.70;;
50429;SDS011;36359;41.556;-8.418;2022-08-21T13:59:45;3.67;;;2.17;;
50429;SDS011;36359;41.556;-8.418;2022-08-21T14:02:21;3.67;;;1.77;;
50429;SDS011;36359;41.556;-8.418;2022-08-21T14:07:29;3.03;;;2.10;;
50429;SDS011;36359;41.556;-8.418;2022-08-21T14:10:02;3.10;;;1.92;;
50429;SDS011;36359;41.556;-8.418;2022-08-21T14:12:52;4.05;;;1.98;;
50429;SDS011;36359;41.556;-8.418;2022-08-21T14:15:16;4.10;;;1.85;;
50429;SDS011;36359;41.556;-8.418;2022-08-21T14:17:43;2.50;;;1.70;;
50429;SDS011;36359;41.556;-8.418;2022-08-21T14:20:13;4.00;;;2.58;;
50429;SDS011;36359;41.556;-8.418;2022-08-21T14:22:55;5.07;;;1.77;;
50429;SDS011;36359;41.556;-8.418;2022-08-21T14:28:03;2.63;;;1.80;;
50429;SDS011;36359;41.556;-8.418;2022-08-21T14:30:38;2.42;;;1.52;;
50429;SDS011;36359;41.556;-8.418;2022-08-21T14:33:10;2.47;;;1.80;;
50429;SDS011;36359;41.556;-8.418;2022-08-21T14:35:37;4.72;;;1.50;;
50429;SDS011;36359;41.556;-8.418;2022-08-21T14:38:18;3.38;;;1.40;;
50429;SDS011;36359;41.556;-8.418;2022-08-21T14:40:50;3.35;;;1.55;;
50429;SDS011;36359;41.556;-8.418;2022-08-21T14:43:19;3.78;;;1.70;;
50429;SDS011;36359;41.556;-8.418;2022-08-21T14:45:44;2.45;;;1.20;;
50429;SDS011;36359;41.556;-8.418;2022-08-21T14:48:11;2.08;;;1.20;;
50429;SDS011;36359;41.556;-8.418;2022-08-21T14:50:37;1.83;;;1.15;;
50429;SDS011;36359;41.556;-8.418;2022-08-21T14:53:03;2.55;;;0.93;;
50429;SDS011;36359;41.556;-8.418;2022-08-21T14:55:29;2.53;;;1.00;;
50429;SDS011;36359;41.556;-8.418;2022-08-21T14:58:16;2.60;;;1.55;;
50429;SDS011;36359;41.556;-8.418;2022-08-21T15:00:43;3.90;;;1.35;;
50429;SDS011;36359;41.556;-8.418;2022-08-21T15:03:08;2.95;;;0.93;;
50429;SDS011;36359;41.556;-8.418;2022-08-21T15:05:34;1.90;;;1.00;;
50429;SDS011;36359;41.556;-8.418;2022-08-21T15:08:00;2.20;;;0.80;;
50429;SDS011;36359;41.556;-8.418;2022-08-21T15:10:26;2.88;;;1.00;;
50429;SDS011;36359;41.556;-8.418;2022-08-21T15:12:54;2.22;;;0.73;;
50429;SDS011;36359;41.556;-8.418;2022-08-21T15:15:20;3.83;;;0.85;;
50429;SDS011;36359;41.556;-8.418;2022-08-21T15:17:46;2.60;;;0.93;;
50429;SDS011;36359;41.556;-8.418;2022-08-21T15:20:12;3.05;;;1.05;;
50429;SDS011;36359;41.556;-8.418;2022-08-21T15:22:39;2.92;;;0.90;;
50429;SDS011;36359;41.556;-8.418;2022-08-21T15:25:04;2.78;;;1.33;;
50429;SDS011;36359;41.556;-8.418;2022-08-21T15:27:30;3.95;;;0.88;;
50429;SDS011;36359;41.556;-8.418;2022-08-21T15:29:57;5.20;;;1.00;;
50429;SDS011;36359;41.556;-8.418;2022-08-21T15:32:26;2.33;;;1.02;;
50429;SDS011;36359;41.556;-8.418;2022-08-21T15:34:56;1.95;;;0.70;;
50429;SDS011;36359;41.556;-8.418;2022-08-21T15:37:23;2.45;;;0.70;;
50429;SDS011;36359;41.556;-8.418;2022-08-21T15:39:50;1.67;;;0.70;;
50429;SDS011;36359;41.556;-8.418;2022-08-21T15:42:17;1.42;;;0.65;;
50429;SDS011;36359;41.556;-8.418;2022-08-21T15:44:44;2.28;;;0.75;;
50429;SDS011;36359;41.556;-8.418;2022-08-21T15:47:14;1.88;;;0.57;;
50429;SDS011;36359;41.556;-8.418;2022-08-21T15:49:43;3.13;;;0.73;;
50429;SDS011;36359;41.556;-8.418;2022-08-21T15:52:14;3.17;;;0.63;;
50429;SDS011;36359;41.556;-8.418;2022-08-21T15:54:41;1.95;;;0.68;;
50429;SDS011;36359;41.556;-8.418;2022-08-21T15:57:08;1.70;;;0.45;;
50429;SDS011;36359;41.556;-8.418;2022-08-21T15:59:39;2.30;;;0.50;;
50429;SDS011;36359;41.556;-8.418;2022-08-21T16:04:48;1.48;;;0.52;;
50429;SDS011;36359;41.556;-8.418;2022-08-21T16:07:14;1.85;;;0.57;;
50429;SDS011;36359;41.556;-8.418;2022-08-21T16:09:40;1.80;;;0.50;;
50429;SDS011;36359;41.556;-8.418;2022-08-21T16:12:06;1.83;;;0.40;;
50429;SDS011;36359;41.556;-8.418;2022-08-21T16:14:33;1.38;;;0.35;;
50429;SDS011;36359;41.556;-8.418;2022-08-21T16:17:03;1.75;;;0.68;;
50429;SDS011;36359;41.556;-8.418;2022-08-21T16:19:30;1.30;;;0.30;;
50429;SDS011;36359;41.556;-8.418;2022-08-21T16:21:57;1.58;;;0.30;;
50429;SDS011;36359;41.556;-8.418;2022-08-21T16:24:23;3.65;;;0.30;;
50429;SDS011;36359;41.556;-8.418;2022-08-21T16:26:49;1.15;;;0.25;;
50429;SDS011;36359;41.556;-8.418;2022-08-21T16:29:15;1.60;;;0.30;;
50429;SDS011;36359;41.556;-8.418;2022-08-21T16:31:41;1.45;;;0.20;;
50429;SDS011;36359;41.556;-8.418;2022-08-21T16:34:07;2.83;;;0.30;;
50429;SDS011;36359;41.556;-8.418;2022-08-21T16:36:40;1.73;;;0.20;;